FDX812 PAJN-PAPG
Flight info
| Callsign | FDX812 |
|---|---|
| Flight time | N/A |
| Altitude | 25000 |
| Route | JNU7 SSR SQM |
| Aircraft | MD11/H-SDE1E2E3FGHIJ2J3J4J5M1RWXY/LB1D1 |
Departure
| Time | 2026-04-10 15:42 |
|---|---|
| Airport | Juneau International Airport (PAJN) |
Arrival
| Time | N/A |
|---|---|
| Airport | Petersburg James A Johnson Airport (PAPG) |
| Time | Latitude | Longitude | Altitude | Speed | Heading |
|---|---|---|---|---|---|
| 2026-04-10 15:32 | 58.35818 | -134.59151 | 42 ft | 0 kts | 284° |
| 2026-04-10 15:38 | 58.35820 | -134.59171 | 42 ft | 5 kts | 284° |
| 2026-04-10 15:38 | 58.35832 | -134.59253 | 42 ft | 6 kts | 284° |
| 2026-04-10 15:38 | 58.35843 | -134.59334 | 40 ft | 8 kts | 284° |
| 2026-04-10 15:38 | 58.35858 | -134.59444 | 40 ft | 8 kts | 286° |
| 2026-04-10 15:39 | 58.35867 | -134.59503 | 42 ft | 0 kts | 285° |
| 2026-04-10 15:40 | 58.35869 | -134.59520 | 40 ft | 3 kts | 285° |
| 2026-04-10 15:41 | 58.35871 | -134.59596 | 41 ft | 8 kts | 259° |
| 2026-04-10 15:41 | 58.35841 | -134.59646 | 41 ft | 6 kts | 193° |
| 2026-04-10 15:41 | 58.35784 | -134.59632 | 42 ft | 11 kts | 139° |
| 2026-04-10 15:41 | 58.35735 | -134.59315 | 42 ft | 59 kts | 103° |
| 2026-04-10 15:42 | 58.35539 | -134.57929 | 41 ft | 155 kts | 105° |
| 2026-04-10 15:42 | 58.35215 | -134.55569 | 432 ft | 194 kts | 103° |
| 2026-04-10 15:42 | 58.34872 | -134.53293 | 2168 ft | 168 kts | 107° |
| 2026-04-10 15:42 | 58.34156 | -134.51146 | 2680 ft | 220 kts | 138° |
| 2026-04-10 15:43 | 58.32650 | -134.50066 | 3369 ft | 247 kts | 177° |
| 2026-04-10 15:43 | 58.31084 | -134.51028 | 4809 ft | 236 kts | 219° |
| 2026-04-10 15:43 | 58.30021 | -134.53641 | 5421 ft | 271 kts | 246° |
| 2026-04-10 15:43 | 58.29314 | -134.57153 | 6152 ft | 294 kts | 250° |
| 2026-04-10 15:44 | 58.28566 | -134.60771 | 7096 ft | 301 kts | 248° |